Baughman, Kentucky
Current Conditions -  °F | °C
As of 8:53 AM on Monday 22 Dec 2014 (Local Time) from KLOZ Reporting Station
Overcast Overcast  
Wind Chill: 46°   Ceiling: 3200
Heat Index: 46°   Visibility: 10mi
Dew Point: 37°   Wind: 3mph
Humidity: 71%   Direction: 130°SE
Pressure: 30"   Gusts: NA
Location:  36.865°N, 83.9507°W
Report Text: KLOZ 221353Z AUTO 13003KT 10SM OVC032 08/03 A3000 RMK AO2 SLP163 T00780028
Loading
Personal Weather Stations






























Interactive Weather Map New forecast layout! Learn more

10-Day Weather Forecast

Advertisements
Track Severe Weather on mobile